Time;durP1;ratioP1;P1;durP2;ratioP2;P2;SDS_P1;SDS_P2;PMS_P1;PMS_P2;Temp;Humidity;BMP_temperature;BMP_pressure;BME280_temperature;BME280_humidity;BME280_pressure;Samples;Min_cycle;Max_cycle;Signal;HPM_P1;HPM_P2
2022/10/02 00:00:19;;;;;;;21.42;6.30;;;18.90;75.30;;;;;;5096370;28;20438;-72
2022/10/02 00:03:05;;;;;;;14.15;4.38;;;18.90;75.30;;;;;;5098450;28;20403;-72
2022/10/02 00:05:54;;;;;;;8.68;3.28;;;18.90;75.30;;;;;;5092244;28;20025;-73
2022/10/02 02:13:45;;;;;;;10.25;4.13;;;17.80;76.00;;;;;;5094992;27;20399;-71
2022/10/02 02:16:38;;;;;;;13.27;4.90;;;17.80;73.90;;;;;;5080811;28;20023;-71
2022/10/02 02:19:19;;;;;;;5.78;3.47;;;17.90;73.50;;;;;;5082816;28;20651;-72
2022/10/02 02:21:52;;;;;;;14.50;3.53;;;17.80;72.90;;;;;;5078632;28;20043;-72
2022/10/02 02:24:35;;;;;;;8.82;3.70;;;17.90;72.60;;;;;;5083609;28;20013;-71
2022/10/02 02:27:03;;;;;;;14.98;4.20;;;17.90;73.60;;;;;;5084295;28;20016;-71
2022/10/02 02:29:33;;;;;;;11.57;3.30;;;17.90;72.20;;;;;;5085217;28;20052;-71
2022/10/02 02:32:02;;;;;;;17.17;4.40;;;17.90;71.70;;;;;;5082913;28;20059;-71
2022/10/02 02:34:41;;;;;;;7.13;3.53;;;17.80;71.30;;;;;;5080886;28;20033;-71
2022/10/02 02:37:15;;;;;;;4.63;2.30;;;17.80;71.10;;;;;;5081453;28;20085;-72
2022/10/02 02:40:21;;;;;;;3.90;2.17;;;17.80;70.80;;;;;;5081197;28;20104;-71
2022/10/02 02:43:21;;;;;;;6.70;2.05;;;17.80;70.20;;;;;;5063015;28;20503;-71
2022/10/02 02:45:55;;;;;;;6.30;1.58;;;17.80;69.60;;;;;;5075962;28;20058;-71
2022/10/02 02:48:24;;;;;;;7.68;1.90;;;17.80;69.40;;;;;;5083403;28;20066;-71
2022/10/02 02:51:02;;;;;;;14.85;3.17;;;17.80;69.60;;;;;;5083889;28;20025;-72
2022/10/02 02:53:55;;;;;;;9.82;1.73;;;17.80;69.60;;;;;;5078034;28;20026;-70
2022/10/02 02:56:24;;;;;;;8.57;2.17;;;17.70;69.00;;;;;;5084131;28;20020;-71
2022/10/02 02:59:13;;;;;;;10.32;1.98;;;17.70;68.80;;;;;;5080765;28;20016;-70
2022/10/02 03:01:41;;;;;;;11.55;2.15;;;17.70;68.80;;;;;;5082750;28;20035;-71
2022/10/02 03:04:12;;;;;;;17.13;9.63;;;17.70;68.80;;;;;;5082533;28;20032;-70
2022/10/02 03:06:48;;;;;;;17.38;6.85;;;17.60;69.00;;;;;;5078821;28;20100;-71
2022/10/02 03:09:19;;;;;;;10.52;4.72;;;17.60;69.50;;;;;;5080913;28;20042;-71
2022/10/02 03:11:52;;;;;;;5.95;2.72;;;17.60;69.40;;;;;;5082570;28;20032;-71
2022/10/02 03:14:35;;;;;;;4.20;2.22;;;17.60;69.10;;;;;;5070015;28;20105;-71
2022/10/02 03:17:42;;;;;;;11.43;2.75;;;17.60;69.10;;;;;;5068537;28;20597;-71
2022/10/02 03:20:35;;;;;;;4.35;2.10;;;17.50;70.00;;;;;;5065056;28;20027;-71
2022/10/02 03:23:37;;;;;;;6.25;2.30;;;17.50;69.90;;;;;;5068276;28;20131;-71
2022/10/02 03:26:08;;;;;;;7.20;2.03;;;17.50;69.50;;;;;;5059695;28;20037;-71
2022/10/02 03:28:56;;;;;;;6.55;2.28;;;17.50;69.30;;;;;;5069256;28;20025;-71
2022/10/02 03:31:24;;;;;;;10.10;3.15;;;17.50;69.60;;;;;;5070082;28;20051;-71
2022/10/02 03:33:52;;;;;;;8.25;4.75;;;17.40;69.70;;;;;;5068970;28;20020;-71
2022/10/02 03:36:23;;;;;;;10.13;4.97;;;17.40;69.60;;;;;;5067568;28;20031;-71
2022/10/02 03:38:53;;;;;;;8.02;4.65;;;17.40;69.40;;;;;;5067553;28;20574;-71
2022/10/02 03:41:19;;;;;;;7.20;5.15;;;17.40;69.30;;;;;;5065329;28;20125;-71
2022/10/02 03:43:46;;;;;;;10.88;5.85;;;17.40;69.10;;;;;;5066216;28;20029;-71
2022/10/02 03:46:12;;;;;;;6.30;3.85;;;17.30;68.90;;;;;;5066356;28;20025;-71
2022/10/02 03:48:39;;;;;;;5.95;2.92;;;17.30;68.90;;;;;;5068292;28;20120;-71
2022/10/02 03:51:05;;;;;;;4.47;2.70;;;17.30;69.00;;;;;;5067830;28;20383;-72
2022/10/02 03:53:33;;;;;;;14.07;3.33;;;17.30;68.90;;;;;;5069302;28;20030;-71
2022/10/02 03:56:03;;;;;;;16.30;4.18;;;17.30;68.90;;;;;;5068476;28;20116;-71
2022/10/02 03:58:31;;;;;;;10.20;4.05;;;17.30;69.50;;;;;;5066511;28;20379;-72
2022/10/02 04:01:05;;;;;;;12.43;6.95;;;17.30;69.80;;;;;;5069137;28;20048;-72
2022/10/02 04:03:47;;;;;;;23.38;9.93;;;17.30;70.00;;;;;;5065217;28;20064;-71
2022/10/02 04:06:24;;;;;;;12.27;7.38;;;17.20;69.60;;;;;;5067501;28;20028;-71
2022/10/02 04:08:57;;;;;;;9.98;5.35;;;17.20;69.30;;;;;;5070525;28;20050;-70
2022/10/02 04:11:26;;;;;;;8.93;3.45;;;17.20;69.10;;;;;;5065427;28;20082;-72
2022/10/02 04:14:09;;;;;;;9.27;3.22;;;17.20;69.20;;;;;;5068458;28;20065;-71
2022/10/02 04:16:51;;;;;;;4.90;2.55;;;17.20;68.60;;;;;;5064809;28;20062;-70
2022/10/02 04:19:25;;;;;;;5.28;2.08;;;17.10;68.30;;;;;;5067795;28;20024;-71
2022/10/02 04:22:20;;;;;;;4.35;1.83;;;17.10;68.10;;;;;;5062097;28;20074;-71
2022/10/02 04:25:05;;;;;;;4.75;1.88;;;17.10;67.90;;;;;;5057886;28;20079;-70
2022/10/02 04:27:32;;;;;;;5.72;1.42;;;17.10;67.80;;;;;;5067213;28;20510;-70
2022/10/02 04:30:05;;;;;;;3.47;1.95;;;17.10;67.70;;;;;;5067189;28;20047;-70
2022/10/02 04:32:35;;;;;;;20.70;3.15;;;17.00;67.60;;;;;;5068257;28;20021;-68
2022/10/02 04:35:11;;;;;;;5.45;2.33;;;17.00;67.70;;;;;;5067667;28;20501;-70
2022/10/02 04:38:05;;;;;;;10.27;3.47;;;17.00;67.90;;;;;;5063631;28;20012;-70
2022/10/02 04:40:53;;;;;;;8.45;3.03;;;17.00;68.00;;;;;;5065125;28;20044;-70
2022/10/02 04:43:41;;;;;;;13.70;4.30;;;17.00;68.60;;;;;;5065938;28;20108;-70
2022/10/02 04:46:44;;;;;;;26.85;13.55;;;16.90;68.90;;;;;;5066150;28;20016;-70
2022/10/02 04:49:34;;;;;;;26.10;13.93;;;16.90;69.20;;;;;;5065354;28;20024;-71
2022/10/02 04:52:06;;;;;;;18.15;11.48;;;16.90;69.40;;;;;;5066565;28;20020;-72
2022/10/02 04:54:54;;;;;;;15.90;9.20;;;16.90;69.50;;;;;;5068152;28;20364;-69
2022/10/02 04:57:48;;;;;;;9.30;6.13;;;16.90;69.50;;;;;;5066974;28;20036;-70
2022/10/02 05:00:18;;;;;;;10.52;5.13;;;16.90;69.60;;;;;;5066158;28;20028;-72
2022/10/02 05:03:00;;;;;;;5.72;3.85;;;16.90;69.50;;;;;;5062598;28;20399;-71
2022/10/02 05:05:32;;;;;;;14.15;4.43;;;16.90;69.50;;;;;;5066442;28;20483;-70
2022/10/02 05:08:11;;;;;;;11.20;6.05;;;16.90;69.50;;;;;;5065325;28;21025;-72
2022/10/02 05:10:49;;;;;;;9.15;6.05;;;16.90;69.50;;;;;;5065088;28;20071;-69
2022/10/02 05:13:22;;;;;;;13.27;6.65;;;16.80;69.40;;;;;;5065518;28;20151;-69
2022/10/02 05:16:30;;;;;;;6.72;5.30;;;16.80;69.40;;;;;;5065474;28;20021;-71
2022/10/02 05:18:57;;;;;;;7.47;6.13;;;16.80;69.50;;;;;;5037928;28;20044;-72
2022/10/02 05:21:53;;;;;;;8.95;5.35;;;16.80;69.60;;;;;;5064849;28;20036;-71
2022/10/02 05:24:23;;;;;;;13.55;6.13;;;16.80;69.80;;;;;;5064736;28;20052;-69
2022/10/02 05:26:58;;;;;;;8.77;5.00;;;16.80;70.00;;;;;;5066490;28;20062;-70
2022/10/02 05:29:48;;;;;;;9.52;6.43;;;16.80;70.10;;;;;;5063422;28;20102;-69
2022/10/02 05:32:33;;;;;;;7.88;5.93;;;16.90;70.40;;;;;;5063240;28;20081;-70
2022/10/02 05:35:20;;;;;;;27.30;17.60;;;16.80;70.50;;;;;;5064681;28;20560;-71
2022/10/02 05:38:25;;;;;;;17.50;11.07;;;16.80;70.90;;;;;;5063317;28;20955;-69
2022/10/02 05:41:07;;;;;;;12.93;8.25;;;16.90;71.50;;;;;;5065397;28;20476;-69
2022/10/02 05:43:46;;;;;;;11.55;6.15;;;16.90;71.80;;;;;;5063397;28;20029;-71
2022/10/02 05:46:25;;;;;;;13.38;6.80;;;16.90;72.40;;;;;;5064031;28;20170;-69
2022/10/02 05:49:02;;;;;;;11.20;7.03;;;16.90;72.80;;;;;;5053986;28;20116;-70
2022/10/02 05:51:58;;;;;;;13.48;6.40;;;16.90;73.30;;;;;;5063896;28;20036;-69
2022/10/02 05:55:16;;;;;;;18.40;6.97;;;16.90;73.30;;;;;;5065406;28;20024;-69
2022/10/02 05:57:53;;;;;;;22.83;6.05;;;16.90;73.90;;;;;;5062659;28;20040;-68
2022/10/02 06:00:33;;;;;;;15.63;8.05;;;16.90;74.90;;;;;;5064506;28;20435;-70
2022/10/02 06:03:25;;;;;;;16.02;8.10;;;16.90;75.30;;;;;;5066438;28;20111;-71
2022/10/02 06:06:32;;;;;;;11.90;6.03;;;17.00;75.70;;;;;;5064105;28;20035;-69
2022/10/02 06:09:20;;;;;;;10.27;6.85;;;17.00;76.00;;;;;;5056914;28;20498;-73
2022/10/02 06:11:56;;;;;;;13.32;6.50;;;17.10;76.30;;;;;;5068062;28;20127;-70
2022/10/02 06:14:34;;;;;;;;;;;17.10;76.50;;;;;;5064553;28;20048;-69
2022/10/02 06:17:21;;;;;;;13.20;6.18;;;17.20;77.00;;;;;;5064238;28;19954;-69
2022/10/02 06:19:58;;;;;;;12.90;6.72;;;17.30;77.20;;;;;;5063295;28;20032;-68
2022/10/02 06:22:45;;;;;;;14.20;6.45;;;17.30;77.40;;;;;;5063545;28;20036;-69
2022/10/02 06:25:16;;;;;;;11.35;6.25;;;17.30;77.90;;;;;;5063730;28;20115;-69
2022/10/02 06:27:51;;;;;;;17.05;5.70;;;17.40;77.10;;;;;;5063836;28;20032;-70
2022/10/02 06:30:19;;;;;;;9.48;5.70;;;17.40;77.70;;;;;;5065234;28;20066;-70
2022/10/02 06:33:25;;;;;;;13.05;4.75;;;17.40;77.00;;;;;;5064597;28;20024;-69
2022/10/02 06:36:12;;;;;;;14.10;5.68;;;17.40;77.00;;;;;;5056244;28;20033;-71
2022/10/02 06:39:05;;;;;;;8.55;5.63;;;17.40;77.00;;;;;;5064246;28;20135;-70
2022/10/02 06:41:53;;;;;;;20.65;7.50;;;17.50;77.00;;;;;;5066950;28;20029;-65
2022/10/02 06:44:20;;;;;;;10.35;5.80;;;17.60;77.60;;;;;;5063920;28;20383;-67
2022/10/02 06:47:05;;;;;;;13.05;5.18;;;17.60;77.60;;;;;;5065325;28;20063;-66
2022/10/02 06:49:50;;;;;;;11.98;4.43;;;17.70;77.70;;;;;;5065553;28;20118;-67
2022/10/02 06:52:46;;;;;;;15.63;5.15;;;17.70;77.70;;;;;;5067676;28;20021;-68
2022/10/02 06:55:27;;;;;;;17.10;5.93;;;17.80;77.80;;;;;;5069864;28;20037;-68
2022/10/02 06:58:08;;;;;;;12.25;5.72;;;17.80;78.00;;;;;;5067281;28;20074;-68
2022/10/02 07:00:57;;;;;;;12.00;4.10;;;17.90;78.10;;;;;;5068333;28;20040;-68
2022/10/02 07:03:46;;;;;;;25.33;5.20;;;17.90;78.10;;;;;;5065062;28;20032;-69
2022/10/02 07:06:26;;;;;;;11.75;4.35;;;18.00;78.70;;;;;;5065993;28;20016;-69
2022/10/02 07:09:19;;;;;;;12.68;5.03;;;18.00;79.20;;;;;;5067814;28;20036;-69
2022/10/02 07:12:14;;;;;;;31.63;16.35;;;18.10;79.30;;;;;;5066400;28;20429;-70
2022/10/02 07:14:44;;;;;;;49.42;34.95;;;18.20;79.30;;;;;;5068876;28;20116;-69
2022/10/02 07:17:31;;;;;;;53.80;26.48;;;18.30;79.50;;;;;;5066202;28;20064;-68
2022/10/02 07:20:01;;;;;;;38.25;19.60;;;18.40;79.60;;;;;;5064875;28;20023;-68
2022/10/02 07:23:15;;;;;;;30.60;15.82;;;18.40;79.60;;;;;;5065412;28;20021;-67
2022/10/02 07:25:59;;;;;;;30.83;17.33;;;18.50;79.70;;;;;;5057577;28;20051;-70
2022/10/02 07:29:05;;;;;;;19.38;12.55;;;18.50;79.90;;;;;;5068324;28;20056;-71
2022/10/02 07:31:48;;;;;;;25.25;12.57;;;18.60;79.80;;;;;;5064852;28;20429;-69
2022/10/02 07:34:36;;;;;;;11.55;7.95;;;18.70;79.70;;;;;;5067715;28;20060;-71
2022/10/02 07:37:11;;;;;;;18.80;7.82;;;18.80;79.50;;;;;;5066613;28;20461;-71
2022/10/02 07:40:00;;;;;;;18.23;7.18;;;18.80;79.70;;;;;;5065893;28;20048;-69
2022/10/02 07:42:44;;;;;;;12.40;6.05;;;18.90;79.70;;;;;;5064707;28;20119;-67
2022/10/02 07:45:35;;;;;;;7.63;3.63;;;19.00;79.60;;;;;;5067417;28;20020;-69
2022/10/02 07:48:25;;;;;;;14.98;5.05;;;19.00;79.10;;;;;;5066746;28;20021;-70
2022/10/02 07:51:46;;;;;;;12.48;3.22;;;19.10;77.60;;;;;;5066137;28;20116;-69
2022/10/02 07:54:43;;;;;;;4.20;2.80;;;19.20;75.80;;;;;;5064292;28;20095;-71
2022/10/02 07:57:30;;;;;;;8.82;2.88;;;19.30;74.00;;;;;;5061754;28;20025;-72
2022/10/02 08:00:10;;;;;;;7.18;2.13;;;19.50;72.40;;;;;;5066213;28;20025;-72
2022/10/02 08:02:49;;;;;;;9.15;2.42;;;19.60;72.10;;;;;;5063614;28;20044;-72
2022/10/02 08:05:24;;;;;;;8.52;2.17;;;19.80;72.50;;;;;;5067232;28;20027;-71
2022/10/02 08:07:56;;;;;;;6.80;2.00;;;19.80;71.00;;;;;;5067761;28;20067;-72
2022/10/02 08:11:02;;;;;;;5.47;2.65;;;19.90;70.20;;;;;;5068340;28;20032;-69
2022/10/02 08:13:38;;;;;;;12.85;2.38;;;20.00;69.20;;;;;;5068130;28;20037;-76
2022/10/02 08:16:07;;;;;;;6.85;2.03;;;20.10;68.70;;;;;;5063265;28;20032;-71
2022/10/02 08:18:39;;;;;;;5.47;1.67;;;20.10;68.80;;;;;;5066913;28;20394;-70
2022/10/02 08:21:13;;;;;;;7.88;3.28;;;20.20;68.60;;;;;;5066823;28;20123;-73
2022/10/02 08:24:01;;;;;;;8.57;2.65;;;20.30;67.90;;;;;;5065363;28;20474;-71
2022/10/02 08:26:41;;;;;;;16.63;11.45;;;20.30;67.80;;;;;;5065116;28;20421;-69
2022/10/02 08:29:33;;;;;;;12.40;5.78;;;20.30;68.00;;;;;;5068085;28;20028;-71
2022/10/02 08:32:01;;;;;;;5.70;3.50;;;20.30;68.20;;;;;;5065001;28;20027;-70
2022/10/02 08:34:29;;;;;;;8.10;3.15;;;20.30;68.20;;;;;;5064543;28;20033;-70
2022/10/02 08:37:22;;;;;;;8.00;3.72;;;20.30;68.40;;;;;;5066674;28;20475;-70
2022/10/02 08:40:32;;;;;;;10.10;2.47;;;20.30;68.50;;;;;;5066356;28;20036;-71
2022/10/02 08:43:10;;;;;;;9.88;3.10;;;20.30;68.50;;;;;;5066871;28;20036;-70
2022/10/02 08:46:28;;;;;;;6.63;1.98;;;20.40;68.50;;;;;;5066157;28;20035;-70
2022/10/02 08:49:21;;;;;;;6.15;2.28;;;20.40;68.50;;;;;;5064207;28;20491;-70
2022/10/02 08:52:01;;;;;;;7.35;2.28;;;20.50;69.50;;;;;;5062637;28;20021;-70
2022/10/02 08:54:37;;;;;;;20.88;3.25;;;20.50;70.40;;;;;;5061305;28;20028;-70
2022/10/02 08:57:36;;;;;;;10.45;2.28;;;20.50;70.40;;;;;;5062943;28;20028;-70
2022/10/02 09:00:46;;;;;;;12.63;3.83;;;20.50;71.70;;;;;;5048075;28;20044;-70
2022/10/02 09:03:54;;;;;;;10.93;2.35;;;20.50;72.60;;;;;;5061137;28;20182;-71
2022/10/02 09:06:57;;;;;;;9.40;3.30;;;20.60;73.20;;;;;;5058179;28;20038;-70
2022/10/02 09:09:45;;;;;;;9.77;3.70;;;20.60;73.20;;;;;;5060799;28;20396;-70
2022/10/02 09:12:57;;;;;;;18.30;3.35;;;20.70;72.90;;;;;;5058893;28;20127;-70
2022/10/02 09:15:35;;;;;;;6.93;2.50;;;20.70;73.00;;;;;;5057623;28;20049;-70
2022/10/02 09:18:23;;;;;;;14.82;3.03;;;20.80;73.30;;;;;;5062631;28;20056;-70
2022/10/02 09:21:41;;;;;;;9.88;3.50;;;21.00;74.00;;;;;;5061799;28;20043;-71
2022/10/02 09:24:50;;;;;;;10.43;2.88;;;21.00;74.60;;;;;;5061141;28;20036;-71
2022/10/02 09:27:29;;;;;;;11.80;3.45;;;21.00;74.40;;;;;;5065732;28;20431;-69
2022/10/02 09:30:01;;;;;;;13.20;4.10;;;21.10;75.10;;;;;;5065575;28;20055;-70
2022/10/02 09:32:33;;;;;;;10.07;2.50;;;21.20;74.40;;;;;;5064980;28;20029;-70
2022/10/02 09:35:32;;;;;;;6.85;2.53;;;21.20;74.20;;;;;;5066288;28;20502;-71
2022/10/02 09:38:28;;;;;;;15.23;2.63;;;21.30;72.90;;;;;;5063333;28;20020;-71
2022/10/02 09:41:03;;;;;;;8.18;2.30;;;21.30;72.70;;;;;;5064794;28;20129;-71
2022/10/02 09:44:00;;;;;;;9.50;2.47;;;21.30;73.00;;;;;;5065079;28;20065;-71
2022/10/02 09:46:49;;;;;;;9.40;3.55;;;21.40;72.80;;;;;;5065114;28;20020;-69
2022/10/02 09:49:41;;;;;;;9.85;2.42;;;21.50;72.10;;;;;;5066233;28;20031;-72
2022/10/02 09:52:44;;;;;;;9.13;2.58;;;21.50;71.20;;;;;;5063586;28;20130;-70
2022/10/02 09:55:35;;;;;;;10.70;2.75;;;21.60;70.50;;;;;;5061588;28;20032;-71
2022/10/02 09:58:35;;;;;;;7.00;2.20;;;21.60;69.80;;;;;;5066572;28;20024;-71
2022/10/02 10:01:20;;;;;;;9.32;2.83;;;21.70;69.60;;;;;;5066707;28;20086;-70
2022/10/02 10:04:00;;;;;;;8.30;2.47;;;21.70;69.90;;;;;;5061992;28;20386;-70
2022/10/02 10:06:40;;;;;;;14.38;3.17;;;21.70;71.70;;;;;;5064547;28;20770;-70
2022/10/02 10:09:28;;;;;;;13.90;3.08;;;21.70;73.40;;;;;;5061628;28;20478;-71
2022/10/02 10:12:19;;;;;;;10.27;3.50;;;21.80;74.30;;;;;;5064429;28;20045;-71
2022/10/02 10:15:07;;;;;;;15.55;4.10;;;21.80;74.50;;;;;;5066089;28;20028;-69
2022/10/02 10:18:22;;;;;;;18.23;6.32;;;21.90;74.40;;;;;;5064055;28;20032;-69
2022/10/02 10:21:23;;;;;;;9.88;2.58;;;21.90;74.20;;;;;;5066586;28;20028;-72
2022/10/02 10:24:08;;;;;;;5.50;3.38;;;21.90;74.10;;;;;;5067610;28;20017;-67
2022/10/02 10:26:53;;;;;;;9.32;2.30;;;21.90;74.20;;;;;;5068389;28;20083;-70
2022/10/02 10:29:41;;;;;;;20.73;4.10;;;21.90;73.90;;;;;;5065287;28;20025;-70
2022/10/02 10:32:08;;;;;;;15.45;2.75;;;22.00;74.10;;;;;;5066382;28;20091;-67
2022/10/02 10:34:56;;;;;;;9.90;2.42;;;22.00;74.10;;;;;;5063453;28;20024;-68
2022/10/02 10:40:37;;;;;;;8.55;3.22;;;22.10;74.90;;;;;;5070321;28;20047;-69
2022/10/02 10:43:35;;;;;;;14.57;3.28;;;22.20;74.80;;;;;;5064760;28;20040;-68
2022/10/02 10:46:24;;;;;;;8.93;1.85;;;22.20;74.60;;;;;;5066599;28;20891;-68
2022/10/02 10:49:29;;;;;;;8.25;3.42;;;22.20;74.40;;;;;;5040283;28;20391;-68
2022/10/02 10:52:24;;;;;;;6.47;3.38;;;22.40;74.30;;;;;;5066841;28;20032;-70
2022/10/02 10:55:08;;;;;;;7.13;2.40;;;22.40;74.10;;;;;;5067752;28;20025;-68
2022/10/02 10:58:01;;;;;;;8.52;2.45;;;22.40;74.00;;;;;;5067165;28;20382;-69
2022/10/02 11:00:52;;;;;;;14.18;2.63;;;22.50;74.10;;;;;;5067862;28;20081;-69
2022/10/02 11:03:58;;;;;;;12.85;2.67;;;22.50;73.80;;;;;;5066695;28;20109;-69
2022/10/02 11:06:33;;;;;;;8.68;2.35;;;22.60;73.80;;;;;;5064395;28;20036;-69
2022/10/02 11:09:12;;;;;;;9.80;3.10;;;22.60;73.50;;;;;;5064907;28;20154;-70
2022/10/02 11:11:44;;;;;;;10.82;2.85;;;22.60;73.40;;;;;;5068672;28;20114;-68
2022/10/02 11:14:41;;;;;;;6.53;2.30;;;22.60;73.50;;;;;;5064349;28;20039;-67
2022/10/02 11:17:16;;;;;;;5.80;2.03;;;22.70;73.20;;;;;;5067317;28;20847;-70
2022/10/02 11:20:04;;;;;;;7.22;1.83;;;22.70;72.80;;;;;;5067528;28;20024;-70
2022/10/02 11:22:58;;;;;;;7.78;3.50;;;22.80;72.90;;;;;;5067088;28;20067;-68
2022/10/02 11:25:47;;;;;;;8.73;2.15;;;22.90;72.90;;;;;;5068834;28;20070;-70
2022/10/02 11:28:33;;;;;;;6.10;2.10;;;23.00;72.70;;;;;;5069226;28;20028;-69
2022/10/02 11:31:05;;;;;;;5.13;2.13;;;23.00;72.60;;;;;;5067531;28;20070;-69
2022/10/02 11:33:54;;;;;;;11.35;3.20;;;23.00;72.60;;;;;;5068347;28;20024;-71
2022/10/02 11:36:51;;;;;;;5.25;2.00;;;23.10;72.60;;;;;;5068474;28;20475;-68
2022/10/02 11:40:08;;;;;;;8.13;3.13;;;23.20;72.40;;;;;;5066705;28;20035;-67
2022/10/02 11:43:12;;;;;;;4.68;2.25;;;23.20;72.00;;;;;;5048863;28;20426;-69
2022/10/02 11:46:03;;;;;;;7.10;1.75;;;23.30;72.00;;;;;;5067962;28;20029;-68
2022/10/02 11:49:07;;;;;;;9.52;2.03;;;23.40;71.70;;;;;;5067234;28;20395;-69
2022/10/02 11:51:51;;;;;;;9.48;3.55;;;23.40;71.40;;;;;;5068832;28;20037;-68
2022/10/02 11:54:50;;;;;;;7.23;3.70;;;23.50;71.50;;;;;;5068805;28;20032;-68
2022/10/02 11:57:34;;;;;;;6.22;2.63;;;23.50;70.80;;;;;;5065642;28;20647;-70
2022/10/02 12:00:12;;;;;;;5.55;2.28;;;23.50;70.40;;;;;;5066263;28;20024;-68
2022/10/02 12:02:43;;;;;;;6.10;2.03;;;23.50;70.30;;;;;;5064889;28;20471;-67
2022/10/02 12:05:41;;;;;;;5.32;3.17;;;23.50;70.00;;;;;;5066067;28;20495;-68
2022/10/02 12:08:33;;;;;;;9.10;2.70;;;23.60;69.80;;;;;;5066865;28;20024;-69
2022/10/02 12:11:31;;;;;;;4.88;2.65;;;23.60;69.60;;;;;;5064949;28;20055;-69
2022/10/02 12:14:29;;;;;;;7.88;2.53;;;23.60;69.50;;;;;;5064438;28;20028;-70
2022/10/02 12:17:15;;;;;;;9.75;2.20;;;23.60;69.40;;;;;;5067603;28;20035;-69
2022/10/02 12:30:06;;;;;;;4.13;1.77;;;23.60;68.60;;;;;;5067869;28;20560;-68
2022/10/02 12:33:01;;;;;;;6.72;2.53;;;23.60;68.60;;;;;;5065800;28;20415;-67
2022/10/02 12:35:28;;;;;;;10.10;2.53;;;23.70;68.70;;;;;;5065991;28;20077;-68
2022/10/02 12:38:03;;;;;;;7.75;1.98;;;23.70;68.60;;;;;;5065192;28;20020;-68
2022/10/02 12:40:43;;;;;;;7.85;2.30;;;23.80;68.60;;;;;;5067085;28;20368;-68
2022/10/02 12:43:16;;;;;;;10.25;2.22;;;23.80;68.20;;;;;;5062653;28;20132;-68
2022/10/02 12:45:52;;;;;;;8.88;2.72;;;23.90;68.00;;;;;;5061739;28;20024;-70
2022/10/02 12:48:57;;;;;;;4.90;1.98;;;23.90;67.60;;;;;;5067150;28;20410;-68
2022/10/02 12:51:32;;;;;;;13.93;2.88;;;24.00;67.20;;;;;;5067205;28;20354;-68
2022/10/02 12:54:18;;;;;;;7.93;2.38;;;24.10;66.70;;;;;;5066749;28;20468;-69
2022/10/02 12:57:50;;;;;;;10.38;2.75;;;24.10;66.50;;;;;;5062408;28;20022;-69
2022/10/02 13:00:41;;;;;;;8.30;2.45;;;24.20;66.70;;;;;;5064864;28;20123;-68
2022/10/02 13:03:23;;;;;;;;;;;24.20;66.70;;;;;;5068235;28;20036;-69
2022/10/02 13:06:36;;;;;;;9.75;4.13;;;24.30;66.20;;;;;;5066739;28;19978;-68
2022/10/02 13:09:17;;;;;;;10.45;2.42;;;24.30;65.30;;;;;;5068108;28;20028;-68
2022/10/02 13:12:21;;;;;;;4.82;2.20;;;24.40;65.20;;;;;;5066629;28;20088;-67
2022/10/02 13:15:00;;;;;;;6.22;1.73;;;24.50;63.70;;;;;;5062930;28;20024;-70
2022/10/02 13:17:35;;;;;;;10.85;3.45;;;24.50;63.00;;;;;;5066677;28;20024;-70
2022/10/02 13:20:14;;;;;;;4.15;1.83;;;24.60;63.50;;;;;;5065401;28;20043;-67
2022/10/02 13:23:20;;;;;;;13.80;2.35;;;24.60;63.80;;;;;;5064587;28;20081;-67
2022/10/02 13:26:20;;;;;;;16.73;2.92;;;24.60;64.20;;;;;;5063348;28;20422;-70
2022/10/02 13:28:55;;;;;;;9.32;2.42;;;24.50;65.10;;;;;;5062084;28;20046;-67
2022/10/02 13:31:35;;;;;;;14.25;2.58;;;24.50;65.30;;;;;;5065785;28;20032;-68
2022/10/02 13:34:20;;;;;;;8.55;2.67;;;24.50;65.30;;;;;;5063025;28;20066;-68
2022/10/02 13:37:11;;;;;;;10.38;2.75;;;24.40;65.60;;;;;;5066000;28;20491;-70
2022/10/02 13:39:40;;;;;;;8.93;2.75;;;24.40;65.70;;;;;;5065745;28;20487;-67
2022/10/02 13:42:24;;;;;;;6.63;2.38;;;24.30;65.80;;;;;;5062538;28;20107;-69
2022/10/02 13:45:06;;;;;;;5.15;2.38;;;24.20;65.00;;;;;;5062364;28;20455;-68
2022/10/02 13:47:53;;;;;;;7.82;2.17;;;24.20;64.00;;;;;;5067453;28;20025;-69
2022/10/02 13:50:40;;;;;;;8.05;2.25;;;24.20;64.40;;;;;;5064789;28;20031;-68
2022/10/02 13:53:53;;;;;;;6.75;1.98;;;24.10;65.90;;;;;;5065193;28;20536;-68
2022/10/02 13:57:09;;;;;;;10.13;3.28;;;24.10;67.00;;;;;;5064251;28;20492;-68
2022/10/02 14:00:08;;;;;;;10.57;2.80;;;24.00;67.60;;;;;;5064475;28;20075;-69
2022/10/02 14:03:00;;;;;;;8.52;2.15;;;23.90;67.80;;;;;;5064298;28;20111;-70
2022/10/02 14:06:25;;;;;;;5.90;3.10;;;23.90;68.10;;;;;;5061677;28;20028;-68
2022/10/02 14:09:23;;;;;;;12.38;2.63;;;23.80;68.00;;;;;;5061084;28;20032;-70
2022/10/02 14:12:10;;;;;;;13.10;3.90;;;23.80;68.40;;;;;;5062841;28;20086;-69
2022/10/02 14:14:54;;;;;;;11.30;2.72;;;23.80;68.50;;;;;;5065630;28;20053;-68
2022/10/02 14:17:48;;;;;;;10.25;3.63;;;23.70;68.40;;;;;;5066357;28;20028;-71
2022/10/02 14:20:37;;;;;;;12.63;3.53;;;23.70;68.60;;;;;;5064422;28;20470;-68
2022/10/02 14:23:24;;;;;;;10.57;4.05;;;23.60;68.70;;;;;;5081051;28;20055;-68
2022/10/02 14:29:48;;;;;;;10.13;3.22;;;23.50;68.80;;;;;;5064134;28;20059;-69
2022/10/02 14:32:46;;;;;;;9.68;2.83;;;23.50;69.70;;;;;;5056634;28;20049;-68
2022/10/02 14:35:24;;;;;;;9.50;3.35;;;23.50;69.80;;;;;;5066591;28;20036;-69
2022/10/02 14:38:15;;;;;;;9.13;3.15;;;23.50;70.30;;;;;;5063596;28;20020;-69
2022/10/02 14:40:47;;;;;;;24.52;4.68;;;23.40;70.80;;;;;;5062828;28;20024;-69
2022/10/02 14:43:42;;;;;;;27.42;8.45;;;23.40;71.30;;;;;;5063597;28;20108;-69
2022/10/02 14:46:15;;;;;;;17.95;5.28;;;23.50;72.30;;;;;;5064434;28;20017;-69
2022/10/02 14:49:18;;;;;;;7.15;3.50;;;23.40;72.00;;;;;;5064034;28;20028;-70
2022/10/02 14:52:11;;;;;;;7.32;3.70;;;23.30;72.00;;;;;;5064164;28;20033;-69
2022/10/02 14:55:00;;;;;;;8.48;2.33;;;23.20;72.20;;;;;;5066801;28;20494;-67
2022/10/02 14:57:32;;;;;;;9.30;2.72;;;23.20;73.00;;;;;;5066746;28;20041;-66
2022/10/02 15:00:08;;;;;;;12.60;2.28;;;23.10;74.00;;;;;;5063319;28;20024;-66
2022/10/02 15:02:56;;;;;;;11.60;3.10;;;23.10;74.10;;;;;;5064163;28;20122;-67
2022/10/02 15:06:00;;;;;;;16.25;4.10;;;23.10;73.30;;;;;;5064344;28;20025;-67
2022/10/02 15:08:58;;;;;;;15.35;3.10;;;23.00;73.30;;;;;;5065354;28;20093;-69
2022/10/02 15:11:50;;;;;;;6.40;2.67;;;23.00;73.40;;;;;;5069785;28;20157;-67
2022/10/02 15:14:25;;;;;;;7.15;2.25;;;22.90;73.30;;;;;;5068863;28;20040;-68
2022/10/02 15:20:54;;;;;;;11.45;2.95;;;22.90;73.40;;;;;;5068339;28;20044;-70
2022/10/02 15:23:43;;;;;;;12.20;2.45;;;22.80;73.50;;;;;;5067585;28;20510;-67
2022/10/02 15:26:39;;;;;;;5.97;1.50;;;22.80;73.80;;;;;;5068648;28;20020;-68
2022/10/02 15:29:39;;;;;;;10.90;2.53;;;22.80;73.40;;;;;;5068792;28;20021;-70
2022/10/02 15:32:30;;;;;;;25.45;4.80;;;22.80;72.90;;;;;;5067616;28;20067;-67
2022/10/02 15:35:08;;;;;;;12.52;3.50;;;22.80;73.60;;;;;;5068572;28;20024;-68
2022/10/02 15:38:06;;;;;;;10.85;2.17;;;22.80;74.60;;;;;;5071097;28;20059;-67
2022/10/02 15:40:53;;;;;;;7.88;1.83;;;22.70;73.00;;;;;;5068210;28;20036;-68
2022/10/02 15:43:53;;;;;;;4.45;1.70;;;22.70;72.60;;;;;;5063052;28;20090;-68
2022/10/02 15:46:22;;;;;;;7.10;2.10;;;22.70;72.60;;;;;;5095745;28;20024;-67
2022/10/02 15:48:59;;;;;;;13.80;3.25;;;22.60;72.70;;;;;;5063060;28;20070;-69
2022/10/02 15:51:35;;;;;;;21.52;4.75;;;22.60;73.30;;;;;;5062786;28;20798;-69
2022/10/02 15:54:15;;;;;;;10.50;2.42;;;22.60;74.40;;;;;;5063140;28;20060;-68
2022/10/02 15:57:00;;;;;;;13.55;4.05;;;22.60;75.00;;;;;;5063010;28;20024;-70
2022/10/02 15:59:51;;;;;;;12.98;7.22;;;22.60;75.30;;;;;;5063252;28;20016;-68
2022/10/02 16:02:35;;;;;;;10.82;4.07;;;22.50;75.30;;;;;;5064931;28;20029;-67
2022/10/02 18:15:06;;;;;;;11.20;5.63;;;20.70;72.60;;;;;;5015345;27;20993;-69
2022/10/02 18:17:42;;;;;;;7.97;3.70;;;20.80;73.30;;;;;;5011699;27;20040;-69
2022/10/02 18:20:22;;;;;;;6.47;2.30;;;20.80;73.10;;;;;;5014275;27;20053;-67
2022/10/02 18:23:01;;;;;;;5.50;2.97;;;20.80;72.80;;;;;;5010983;27;20046;-70
2022/10/02 18:25:37;;;;;;;6.07;1.95;;;20.80;72.50;;;;;;5009156;27;20109;-70
2022/10/02 18:28:31;;;;;;;7.05;2.53;;;20.90;72.60;;;;;;5011949;27;20519;-70
2022/10/02 18:31:24;;;;;;;8.40;2.65;;;20.80;72.30;;;;;;5008780;27;20030;-71
2022/10/02 18:34:28;;;;;;;8.15;2.35;;;20.80;72.10;;;;;;5019238;27;20652;-67
2022/10/02 18:37:08;;;;;;;4.00;1.50;;;20.80;72.00;;;;;;5012725;27;20492;-68
2022/10/02 18:39:47;;;;;;;4.68;1.48;;;20.80;71.90;;;;;;5012199;28;20023;-70
2022/10/02 18:42:36;;;;;;;4.55;1.33;;;20.80;72.60;;;;;;5012467;28;20065;-67
2022/10/02 18:45:15;;;;;;;5.40;1.15;;;20.80;72.00;;;;;;5017685;27;20564;-70
2022/10/02 18:48:04;;;;;;;9.27;1.30;;;20.80;72.10;;;;;;5009999;27;20473;-68
2022/10/02 18:50:54;;;;;;;8.38;2.15;;;20.80;72.80;;;;;;5012890;27;20061;-68
2022/10/02 18:53:42;;;;;;;23.63;18.15;;;20.70;72.20;;;;;;5009528;27;20029;-70